createdAt,value
2019-02-08T00:01:19.000Z,42.014
2019-02-08T00:11:18.000Z,42.205
2019-02-08T00:21:18.000Z,42.126
2019-02-08T00:31:18.000Z,42.058
2019-02-08T00:41:18.000Z,42
2019-02-08T00:51:18.000Z,41.832
2019-02-08T01:01:18.000Z,41.816
2019-02-08T01:11:18.000Z,41.714
2019-02-08T01:21:18.000Z,41.603
2019-02-08T01:31:18.000Z,41.566
2019-02-08T01:41:18.000Z,41.475
2019-02-08T01:51:18.000Z,41.502
2019-02-08T02:01:18.000Z,41.284
2019-02-08T02:11:18.000Z,41.291
2019-02-08T02:21:18.000Z,41.211
2019-02-08T02:31:18.000Z,41.617
2019-02-08T02:41:18.000Z,41.418
2019-02-08T02:51:18.000Z,41.445
2019-02-08T03:01:18.000Z,41.366
2019-02-08T03:11:18.000Z,41.332
2019-02-08T03:21:18.000Z,41.242
2019-02-08T03:31:18.000Z,41.216
2019-02-08T03:41:18.000Z,41.118
2019-02-08T03:51:18.000Z,41.039
2019-02-08T04:01:18.000Z,41.079
2019-02-08T04:21:18.000Z,40.666
2019-02-08T04:31:19.000Z,40.611
2019-02-08T04:41:18.000Z,40.62
2019-02-08T04:51:18.000Z,40.595
2019-02-08T05:01:18.000Z,40.412
2019-02-08T05:11:18.000Z,40.432
2019-02-08T05:21:18.000Z,40.237
2019-02-08T05:31:22.000Z,40.138
2019-02-08T05:41:18.000Z,40.074
2019-02-08T05:51:19.000Z,40.02
2019-02-08T06:01:19.000Z,39.932
2019-02-08T06:11:19.000Z,39.908
2019-02-08T06:21:19.000Z,39.821
2019-02-08T06:31:19.000Z,39.691
2019-02-08T06:41:19.000Z,39.497
2019-02-08T06:51:19.000Z,39.356
2019-02-08T07:01:19.000Z,39.301
2019-02-08T07:11:19.000Z,38.754
2019-02-08T07:21:19.000Z,38.416
2019-02-08T07:31:19.000Z,38.45
2019-02-08T07:41:19.000Z,38.416
2019-02-08T07:51:19.000Z,38.224
2019-02-08T08:01:22.000Z,38.159
2019-02-08T08:11:19.000Z,38.019
2019-02-08T08:21:19.000Z,37.965
2019-02-08T08:31:19.000Z,37.847
2019-02-08T08:41:19.000Z,37.526
2019-02-08T08:51:19.000Z,37.666
2019-02-08T09:01:19.000Z,37.601
2019-02-08T09:11:19.000Z,37.581
2019-02-08T09:21:19.000Z,37.666
2019-02-08T09:31:19.000Z,37.581
2019-02-08T09:41:19.000Z,37.581
2019-02-08T09:51:19.000Z,37.387
2019-02-08T10:01:19.000Z,37.344
2019-02-08T10:11:19.000Z,37.511
2019-02-08T10:21:19.000Z,37.254
2019-02-08T10:31:19.000Z,37.308
2019-02-08T10:41:19.000Z,37.264
2019-02-08T10:51:19.000Z,37.051
2019-02-08T11:01:19.000Z,37.125
2019-02-08T11:11:19.000Z,37.063
2019-02-08T11:21:19.000Z,36.847
2019-02-08T11:31:19.000Z,36.859
2019-02-08T11:41:19.000Z,36.667
2019-02-08T11:51:19.000Z,36.497
2019-02-08T12:01:19.000Z,36.485
2019-02-08T12:11:19.000Z,36.486
2019-02-08T12:21:19.000Z,36.466
2019-02-08T12:31:19.000Z,36.36
2019-02-08T12:41:19.000Z,36.44
2019-02-08T12:51:19.000Z,36.502
2019-02-08T13:01:20.000Z,36.506
2019-02-08T13:11:20.000Z,36.486
2019-02-08T13:21:19.000Z,36.533
2019-02-08T13:31:20.000Z,36.523
2019-02-08T13:41:22.000Z,36.481
2019-02-08T13:51:20.000Z,36.418
2019-02-08T14:01:20.000Z,36.313
2019-02-08T14:11:21.000Z,36.292
2019-02-08T14:21:20.000Z,36.515
2019-02-08T14:31:20.000Z,36.517
2019-02-08T14:41:20.000Z,36.571
2019-02-08T14:51:20.000Z,36.515
2019-02-08T15:01:20.000Z,36.625
2019-02-08T15:11:20.000Z,36.416
2019-02-08T15:21:20.000Z,36.57
2019-02-08T15:31:20.000Z,36.623
2019-02-08T15:41:20.000Z,36.84
2019-02-08T15:51:20.000Z,36.884
2019-02-08T16:01:24.000Z,36.897
2019-02-08T16:11:20.000Z,36.754
2019-02-08T16:21:20.000Z,36.719
2019-02-08T16:41:20.000Z,37.144
2019-02-08T16:51:20.000Z,37.468
2019-02-08T17:01:20.000Z,37.933
2019-02-08T17:11:21.000Z,38.578
2019-02-08T17:21:20.000Z,38.812
2019-02-08T17:31:20.000Z,39.291
2019-02-08T17:41:20.000Z,39.363
2019-02-08T17:51:20.000Z,40.117
2019-02-08T18:01:20.000Z,40.087
2019-02-08T18:11:20.000Z,39.935
2019-02-08T18:21:20.000Z,39.716
2019-02-08T18:31:20.000Z,39.515
2019-02-08T18:41:21.000Z,39.637
2019-02-08T18:51:20.000Z,39.32
2019-02-08T19:01:20.000Z,39.125
2019-02-08T19:11:20.000Z,39.082
2019-02-08T19:21:21.000Z,38.962
2019-02-08T19:31:20.000Z,39.03
2019-02-08T19:41:20.000Z,39.03
2019-02-08T19:51:20.000Z,38.945
2019-02-08T20:01:20.000Z,38.99
2019-02-08T20:11:20.000Z,39.11
2019-02-08T20:21:20.000Z,39.091
2019-02-08T20:31:20.000Z,38.973
2019-02-08T20:41:20.000Z,38.927
2019-02-08T20:51:20.000Z,38.764
2019-02-08T21:01:20.000Z,38.778
2019-02-08T21:11:20.000Z,38.8
2019-02-08T21:21:20.000Z,38.809
2019-02-08T21:31:21.000Z,38.875
2019-02-08T21:41:20.000Z,38.776
2019-02-08T21:51:20.000Z,38.887
2019-02-08T22:01:21.000Z,38.691
2019-02-08T22:11:21.000Z,38.755
2019-02-08T22:21:23.000Z,38.828
2019-02-08T22:31:21.000Z,38.725
2019-02-08T22:41:21.000Z,38.797
2019-02-08T22:51:21.000Z,38.598
2019-02-08T23:01:21.000Z,38.592
2019-02-08T23:11:21.000Z,38.471
2019-02-08T23:21:22.000Z,38.499
2019-02-08T23:31:21.000Z,38.613
2019-02-08T23:41:21.000Z,38.728
2019-02-08T23:51:21.000Z,38.68
